createdAt,value
2018-02-10T00:00:32.150Z,96.53
2018-02-10T00:01:32.018Z,96.91
2018-02-10T00:02:31.887Z,97.29
2018-02-10T00:03:31.752Z,97.19
2018-02-10T00:04:31.615Z,96.91
2018-02-10T00:05:31.483Z,97.48
2018-02-10T00:06:31.351Z,97.38
2018-02-10T00:07:31.216Z,97.19
2018-02-10T00:08:31.085Z,97.48
2018-02-10T00:09:30.948Z,97.67
2018-02-10T00:10:30.815Z,97.29
2018-02-10T00:11:30.678Z,97.85
2018-02-10T00:12:30.543Z,97.76
2018-02-10T00:13:30.414Z,97.57
2018-02-10T00:14:30.276Z,97.38
2018-02-10T00:15:30.142Z,97.48
2018-02-10T00:16:30.009Z,97.19
2018-02-10T00:17:29.875Z,97.48
2018-02-10T00:18:29.743Z,97.57
2018-02-10T00:19:29.608Z,97.48
2018-02-10T00:20:29.472Z,97.38
2018-02-10T00:21:29.340Z,97.67
2018-02-10T00:22:29.206Z,97.38
2018-02-10T00:23:29.069Z,97.57
2018-02-10T00:24:28.934Z,97.71
2018-02-10T00:25:28.801Z,97.71
2018-02-10T00:26:28.670Z,97.80
2018-02-10T00:27:28.542Z,97.61
2018-02-10T00:28:28.398Z,97.52
2018-02-10T00:29:28.263Z,97.67
2018-02-10T00:30:28.130Z,97.61
2018-02-10T00:31:27.995Z,97.61
2018-02-10T00:32:27.859Z,98.37
2018-02-10T00:33:27.726Z,97.61
2018-02-10T00:34:27.592Z,97.52
2018-02-10T00:35:27.453Z,97.61
2018-02-10T00:36:27.320Z,98.09
2018-02-10T00:37:27.187Z,97.61
2018-02-10T00:38:27.051Z,97.71
2018-02-10T00:39:26.916Z,97.71
2018-02-10T00:40:26.781Z,97.52
2018-02-10T00:41:26.644Z,97.67
2018-02-10T00:42:26.517Z,97.38
2018-02-10T00:43:26.377Z,97.48
2018-02-10T00:44:26.241Z,97.38
2018-02-10T00:45:26.105Z,97.48
2018-02-10T00:46:25.973Z,97.29
2018-02-10T00:47:25.837Z,97.48
2018-02-10T00:48:25.701Z,97.57
2018-02-10T00:49:25.569Z,97.85
2018-02-10T00:50:25.431Z,97.85
2018-02-10T00:51:25.294Z,97.38
2018-02-10T00:52:25.159Z,97.76
2018-02-10T00:53:25.028Z,97.76
2018-02-10T00:54:24.894Z,98.04
2018-02-10T00:55:24.758Z,97.99
2018-02-10T00:56:24.623Z,98.23
2018-02-10T00:57:24.489Z,98.37
2018-02-10T00:58:24.353Z,98.09
2018-02-10T00:59:24.217Z,98.37
2018-02-10T01:00:24.085Z,98.18
2018-02-10T01:01:23.948Z,97.99
2018-02-10T01:02:23.815Z,98.09
2018-02-10T01:03:23.681Z,98.09
2018-02-10T01:04:23.545Z,98.33
2018-02-10T01:05:23.408Z,98.04
2018-02-10T01:06:23.274Z,98.33
2018-02-10T01:07:23.139Z,98.04
2018-02-10T01:08:23.011Z,97.95
2018-02-10T01:09:22.875Z,98.33
2018-02-10T01:10:22.734Z,98.04
2018-02-10T01:11:22.601Z,98.42
2018-02-10T01:12:22.467Z,98.33
2018-02-10T01:13:22.331Z,98.42
2018-02-10T01:14:22.197Z,98.09
2018-02-10T01:15:22.068Z,97.95
2018-02-10T01:16:21.929Z,98.14
2018-02-10T01:17:21.795Z,98.14
2018-02-10T01:18:21.658Z,97.90
2018-02-10T01:19:21.525Z,98.28
2018-02-10T01:20:21.389Z,98.37
2018-02-10T01:21:21.251Z,98.37
2018-02-10T01:22:21.125Z,98.09
2018-02-10T01:23:20.987Z,98.28
2018-02-10T01:24:20.849Z,97.90
2018-02-10T01:25:20.712Z,98.18
2018-02-10T01:26:20.578Z,98.18
2018-02-10T01:27:20.442Z,98.09
2018-02-10T01:28:20.310Z,98.09
2018-02-10T01:29:20.173Z,98.09
2018-02-10T01:30:20.038Z,98.18
2018-02-10T01:31:19.908Z,98.28
2018-02-10T01:32:19.833Z,98.09
2018-02-10T01:33:19.634Z,97.90
2018-02-10T01:34:19.499Z,98.09
2018-02-10T01:35:19.364Z,98.28
2018-02-10T01:36:19.231Z,98.28
2018-02-10T01:37:19.094Z,98.09
2018-02-10T01:38:18.963Z,98.18
2018-02-10T01:39:18.824Z,98.18
2018-02-10T01:40:18.689Z,98.09
2018-02-10T01:41:18.554Z,98.09
2018-02-10T01:42:18.418Z,98.18
2018-02-10T01:43:18.284Z,98.04
2018-02-10T01:44:18.155Z,98.09
2018-02-10T01:45:18.017Z,98.14
2018-02-10T01:46:17.881Z,98.09
2018-02-10T01:47:17.743Z,98.18
2018-02-10T01:48:17.610Z,98.18
2018-02-10T01:49:17.475Z,98.28
2018-02-10T01:50:17.339Z,97.99
2018-02-10T01:51:17.203Z,98.42
2018-02-10T01:52:17.069Z,98.09
2018-02-10T01:53:16.933Z,98.09
2018-02-10T01:54:16.800Z,97.71
2018-02-10T01:55:16.664Z,98.09
2018-02-10T01:56:16.534Z,97.90
2018-02-10T01:57:16.398Z,98.28
2018-02-10T01:58:16.262Z,98.18
2018-02-10T01:59:16.125Z,98.09
2018-02-10T02:00:15.991Z,98.18
2018-02-10T02:01:15.854Z,97.99
2018-02-10T02:02:15.721Z,98.09
2018-02-10T02:03:15.586Z,98.09
2018-02-10T02:04:15.453Z,98.09
2018-02-10T02:05:15.318Z,98.47
2018-02-10T02:06:15.185Z,98.47
2018-02-10T02:07:15.049Z,98.28
2018-02-10T02:08:14.913Z,98.37
2018-02-10T02:09:14.777Z,97.90
2018-02-10T02:10:14.643Z,98.18
2018-02-10T02:11:14.516Z,97.43
2018-02-10T02:12:14.378Z,97.80
2018-02-10T02:13:14.238Z,98.18
2018-02-10T02:14:14.107Z,97.90
2018-02-10T02:15:13.971Z,97.90
2018-02-10T02:16:13.835Z,98.09
2018-02-10T02:17:13.700Z,98.09
2018-02-10T02:18:13.567Z,97.99
2018-02-10T02:19:13.429Z,98.09
2018-02-10T02:20:13.311Z,98.18
2018-02-10T02:21:13.161Z,97.99
2018-02-10T02:22:13.026Z,98.18
2018-02-10T02:23:12.892Z,98.09
2018-02-10T02:24:12.761Z,98.37
2018-02-10T02:25:12.621Z,98.28
2018-02-10T02:26:12.489Z,98.09
2018-02-10T02:27:12.354Z,98.28
2018-02-10T02:28:12.216Z,98.75
2018-02-10T02:29:12.082Z,98.28
2018-02-10T02:30:11.946Z,98.47
2018-02-10T02:31:11.810Z,98.37
2018-02-10T02:32:11.676Z,98.09
2018-02-10T02:33:11.542Z,97.90
2018-02-10T02:34:11.407Z,97.80
2018-02-10T02:35:11.277Z,98.56
2018-02-10T02:36:11.138Z,98.56
2018-02-10T02:37:11.002Z,97.99
2018-02-10T02:38:10.869Z,98.65
2018-02-10T02:39:10.732Z,98.65
2018-02-10T02:40:10.600Z,98.47
2018-02-10T02:41:10.465Z,97.80
2018-02-10T02:42:10.330Z,97.90
2018-02-10T02:43:10.201Z,97.90
2018-02-10T02:44:10.059Z,97.61
2018-02-10T02:45:09.923Z,97.61
2018-02-10T02:46:09.796Z,97.33
2018-02-10T02:47:09.657Z,98.37
2018-02-10T02:48:09.522Z,97.90
2018-02-10T02:49:09.389Z,97.99
2018-02-10T02:50:09.253Z,98.18
2018-02-10T02:51:09.119Z,98.18
2018-02-10T02:52:08.981Z,97.99
2018-02-10T02:53:08.849Z,97.90
2018-02-10T02:54:08.713Z,98.18
2018-02-10T02:55:08.578Z,98.28
2018-02-10T02:56:08.441Z,98.37
2018-02-10T02:57:08.305Z,98.37
2018-02-10T02:58:08.171Z,98.56
2018-02-10T02:59:08.035Z,98.18
2018-02-10T03:00:07.901Z,98.37
2018-02-10T03:01:07.766Z,98.18
2018-02-10T03:02:07.630Z,98.65
2018-02-10T03:03:07.493Z,98.94
2018-02-10T03:04:07.361Z,98.94
2018-02-10T03:05:07.225Z,98.94
2018-02-10T03:06:07.090Z,98.18
2018-02-10T03:07:06.951Z,98.94
2018-02-10T03:08:06.820Z,98.75
2018-02-10T03:09:06.683Z,98.47
2018-02-10T03:10:06.546Z,98.47
2018-02-10T03:11:06.412Z,98.56
2018-02-10T03:12:06.276Z,98.65
2018-02-10T03:13:06.145Z,98.56
2018-02-10T03:14:06.012Z,98.56
2018-02-10T03:15:05.874Z,98.47
2018-02-10T03:16:05.735Z,98.56
2018-02-10T03:17:05.602Z,98.37
2018-02-10T03:18:05.469Z,98.94
2018-02-10T03:19:05.337Z,98.94
2018-02-10T03:20:05.194Z,98.75
2018-02-10T03:21:05.059Z,98.75
2018-02-10T03:22:04.928Z,98.94
2018-02-10T03:23:04.788Z,98.37
2018-02-10T03:24:04.654Z,98.94
2018-02-10T03:25:04.519Z,98.84
2018-02-10T03:26:04.385Z,98.65
2018-02-10T03:27:04.248Z,98.94
2018-02-10T03:28:04.115Z,98.56
2018-02-10T03:29:03.977Z,98.56
2018-02-10T03:30:03.845Z,98.94
2018-02-10T03:31:03.709Z,98.75
2018-02-10T03:32:03.574Z,98.84
2018-02-10T03:33:03.437Z,99.03
2018-02-10T03:34:03.302Z,99.03
2018-02-10T03:35:03.166Z,98.18
2018-02-10T03:36:03.034Z,98.56
2018-02-10T03:37:02.899Z,98.37
2018-02-10T03:38:02.768Z,98.47
2018-02-10T03:39:02.627Z,98.56
2018-02-10T03:40:02.496Z,98.37
2018-02-10T03:41:02.359Z,98.47
2018-02-10T03:42:02.225Z,98.28
2018-02-10T03:43:02.091Z,97.99
2018-02-10T03:44:01.953Z,98.37
2018-02-10T03:45:01.817Z,98.09
2018-02-10T03:46:01.682Z,97.80
2018-02-10T03:47:01.554Z,97.99
2018-02-10T03:48:01.412Z,98.37
2018-02-10T03:49:01.279Z,98.37
2018-02-10T03:50:01.142Z,98.37
2018-02-10T03:51:01.008Z,98.28
2018-02-10T03:52:00.871Z,98.37
2018-02-10T03:53:00.737Z,98.56
2018-02-10T03:54:00.601Z,98.65
2018-02-10T03:55:00.469Z,98.47
2018-02-10T03:56:00.335Z,98.56
2018-02-10T03:57:00.197Z,98.47
2018-02-10T03:58:00.062Z,98.28
2018-02-10T03:58:59.929Z,98.37
2018-02-10T03:59:59.794Z,98.37
2018-02-10T04:00:59.654Z,98.28
2018-02-10T04:01:59.523Z,98.56
2018-02-10T04:02:59.387Z,98.37
2018-02-10T04:03:59.250Z,98.37
2018-02-10T04:04:59.117Z,98.37
2018-02-10T04:05:58.984Z,98.56
2018-02-10T04:06:58.849Z,98.37
2018-02-10T04:07:58.711Z,98.37
2018-02-10T04:08:58.578Z,98.18
2018-02-10T04:09:58.443Z,98.37
2018-02-10T04:10:58.310Z,98.37
2018-02-10T04:11:58.171Z,97.90
2018-02-10T04:12:58.040Z,98.37
2018-02-10T04:13:57.904Z,97.90
2018-02-10T04:14:57.773Z,97.99
2018-02-10T04:15:57.632Z,98.09
2018-02-10T04:16:57.496Z,97.90
2018-02-10T04:17:57.364Z,97.90
2018-02-10T04:18:57.229Z,98.28
2018-02-10T04:19:57.093Z,98.28
2018-02-10T04:20:56.957Z,98.47
2018-02-10T04:21:56.823Z,98.56
2018-02-10T04:22:56.687Z,98.18
2018-02-10T04:23:56.550Z,98.37
2018-02-10T04:24:56.414Z,98.37
2018-02-10T04:25:56.278Z,98.47
2018-02-10T04:26:56.140Z,98.47
2018-02-10T04:27:56.009Z,98.37
2018-02-10T04:28:55.873Z,98.56
2018-02-10T04:29:55.736Z,98.65
2018-02-10T04:30:55.604Z,99.03
2018-02-10T04:31:55.466Z,99.41
2018-02-10T04:32:55.330Z,99.03
2018-02-10T04:33:55.210Z,98.94
2018-02-10T04:34:55.061Z,98.75
2018-02-10T04:35:54.924Z,97.99
2018-02-10T04:36:54.787Z,98.28
2018-02-10T04:37:54.654Z,97.99
2018-02-10T04:38:54.521Z,97.52
2018-02-10T04:39:54.383Z,97.43
2018-02-10T04:40:54.247Z,98.09
2018-02-10T04:41:54.116Z,97.52
2018-02-10T04:42:53.975Z,97.43
2018-02-10T04:43:53.843Z,97.43
2018-02-10T04:44:53.709Z,97.52
2018-02-10T04:45:53.570Z,97.33
2018-02-10T04:46:53.434Z,97.24
2018-02-10T04:47:53.300Z,97.43
2018-02-10T04:48:53.164Z,97.43
2018-02-10T04:49:53.031Z,97.43
2018-02-10T04:50:52.893Z,97.80
2018-02-10T04:51:52.761Z,97.61
2018-02-10T04:52:52.625Z,97.61
2018-02-10T04:53:52.488Z,97.14
2018-02-10T04:54:52.350Z,97.14
2018-02-10T04:55:52.215Z,96.86
2018-02-10T04:56:52.082Z,97.52
2018-02-10T04:57:51.946Z,97.14
2018-02-10T04:58:51.811Z,96.86
2018-02-10T04:59:51.675Z,97.24
2018-02-10T05:00:51.540Z,97.14
2018-02-10T05:01:51.405Z,97.33
2018-02-10T05:02:51.271Z,97.14
2018-02-10T05:03:51.136Z,97.24
2018-02-10T05:04:50.999Z,97.43
2018-02-10T05:05:50.864Z,97.24
2018-02-10T05:06:50.727Z,96.95
2018-02-10T05:07:50.594Z,96.77
2018-02-10T05:08:50.461Z,96.95
2018-02-10T05:09:50.332Z,96.86
2018-02-10T05:10:50.188Z,96.67
2018-02-10T05:11:50.055Z,96.67
2018-02-10T05:12:49.922Z,96.77
2018-02-10T05:13:49.785Z,97.43
2018-02-10T05:14:49.645Z,97.43
2018-02-10T05:15:49.513Z,97.24
2018-02-10T05:16:49.375Z,97.33
2018-02-10T05:17:49.242Z,97.05
2018-02-10T05:18:49.108Z,97.52
2018-02-10T05:19:48.972Z,97.43
2018-02-10T05:20:48.837Z,97.24
2018-02-10T05:21:48.700Z,97.05
2018-02-10T05:22:48.566Z,96.48
2018-02-10T05:23:48.428Z,96.67
2018-02-10T05:24:48.293Z,96.86
2018-02-10T05:25:48.161Z,96.67
2018-02-10T05:26:48.026Z,96.67
2018-02-10T05:27:47.888Z,96.77
2018-02-10T05:28:47.756Z,96.58
2018-02-10T05:29:47.620Z,96.77
2018-02-10T05:30:47.484Z,96.77
2018-02-10T05:31:47.351Z,96.77
2018-02-10T05:32:47.216Z,96.30
2018-02-10T05:33:47.082Z,96.48
2018-02-10T05:34:46.943Z,96.48
2018-02-10T05:35:46.810Z,96.67
2018-02-10T05:36:46.675Z,96.48
2018-02-10T05:37:46.540Z,96.39
2018-02-10T05:38:46.405Z,96.39
2018-02-10T05:39:46.267Z,96.20
2018-02-10T05:40:46.134Z,96.39
2018-02-10T05:41:46.000Z,96.48
2018-02-10T05:42:45.865Z,96.48
2018-02-10T05:43:45.727Z,96.48
2018-02-10T05:44:45.595Z,96.11
2018-02-10T05:45:45.461Z,96.77
2018-02-10T05:46:45.322Z,96.30
2018-02-10T05:47:45.188Z,96.86
2018-02-10T05:48:45.053Z,96.77
2018-02-10T05:49:44.918Z,96.39
2018-02-10T05:50:44.783Z,96.48
2018-02-10T05:51:44.650Z,96.39
2018-02-10T05:52:44.512Z,96.77
2018-02-10T05:53:44.379Z,96.30
2018-02-10T05:54:44.240Z,95.64
2018-02-10T05:55:44.105Z,96.11
2018-02-10T05:56:43.973Z,96.48
2018-02-10T05:57:43.837Z,96.30
2018-02-10T05:58:43.701Z,96.48
2018-02-10T05:59:43.565Z,96.48
2018-02-10T06:00:43.432Z,96.39
2018-02-10T06:01:43.296Z,96.30
2018-02-10T06:02:43.160Z,96.39
2018-02-10T06:03:43.026Z,96.58
2018-02-10T06:04:42.893Z,96.48
2018-02-10T06:05:42.755Z,96.20
2018-02-10T06:06:42.623Z,96.30
2018-02-10T06:07:42.487Z,96.48
2018-02-10T06:08:42.351Z,96.67
2018-02-10T06:09:42.217Z,96.77
2018-02-10T06:10:42.095Z,96.77
2018-02-10T06:11:41.948Z,96.58
2018-02-10T06:12:41.814Z,96.48
2018-02-10T06:13:41.681Z,96.67
2018-02-10T06:14:41.546Z,96.48
2018-02-10T06:15:41.407Z,95.73
2018-02-10T06:16:41.296Z,96.48
2018-02-10T06:17:41.137Z,96.58
2018-02-10T06:18:41.131Z,97.14
2018-02-10T06:19:40.888Z,96.67
2018-02-10T06:20:40.775Z,96.30
2018-02-10T06:21:40.612Z,97.43
2018-02-10T06:22:40.462Z,96.48
2018-02-10T06:23:40.326Z,96.67
2018-02-10T06:24:40.190Z,96.67
2018-02-10T06:25:40.058Z,96.48
2018-02-10T06:26:39.934Z,96.77
2018-02-10T06:27:39.784Z,96.67
2018-02-10T06:28:39.648Z,96.58
2018-02-10T06:29:39.529Z,97.05
2018-02-10T06:30:39.382Z,96.48
2018-02-10T06:31:39.314Z,97.05
2018-02-10T06:32:39.107Z,96.67
2018-02-10T06:33:39.006Z,97.14
2018-02-10T06:34:38.837Z,96.30
2018-02-10T06:35:38.704Z,96.39
2018-02-10T06:36:38.572Z,96.48
2018-02-10T06:37:38.433Z,96.48
2018-02-10T06:38:38.300Z,96.48
2018-02-10T06:39:38.232Z,96.48
2018-02-10T06:40:38.031Z,96.58
2018-02-10T06:41:37.895Z,96.20
2018-02-10T06:42:37.758Z,96.67
2018-02-10T06:43:37.626Z,96.30
2018-02-10T06:44:37.491Z,96.30
2018-02-10T06:45:37.353Z,96.77
2018-02-10T06:46:44.354Z,96.67
2018-02-10T06:48:29.889Z,96.48
2018-02-10T06:49:29.721Z,96.48
2018-02-10T06:51:22.399Z,96.58
2018-02-10T06:52:22.241Z,96.58
2018-02-10T06:54:14.858Z,96.48
2018-02-10T06:55:14.812Z,96.58
2018-02-10T06:57:22.502Z,96.67
2018-02-10T06:58:29.432Z,96.67
2018-02-10T07:00:14.924Z,96.48
2018-02-10T07:01:14.780Z,96.48
2018-02-10T07:02:14.647Z,96.48
2018-02-10T07:03:14.511Z,96.77
2018-02-10T07:04:14.376Z,96.58
2018-02-10T07:05:14.242Z,96.48
2018-02-10T07:06:14.107Z,96.67
2018-02-10T07:07:13.968Z,96.77
2018-02-10T07:08:13.832Z,96.48
2018-02-10T07:09:13.700Z,96.48
2018-02-10T07:10:13.563Z,96.39
2018-02-10T07:11:13.431Z,96.77
2018-02-10T07:12:13.298Z,96.48
2018-02-10T07:13:13.159Z,96.67
2018-02-10T07:14:13.025Z,96.39
2018-02-10T07:15:12.889Z,96.48
2018-02-10T07:16:12.755Z,96.20
2018-02-10T07:17:12.631Z,96.30
2018-02-10T07:18:12.484Z,96.20
2018-02-10T07:19:12.348Z,96.48
2018-02-10T07:20:12.212Z,96.48
2018-02-10T07:21:12.082Z,96.48
2018-02-10T07:22:11.945Z,96.39
2018-02-10T07:23:11.808Z,96.48
2018-02-10T07:24:11.672Z,96.48
2018-02-10T07:25:11.553Z,96.48
2018-02-10T07:26:11.404Z,96.11
2018-02-10T07:27:11.272Z,96.48
2018-02-10T07:28:11.141Z,96.58
2018-02-10T07:29:10.998Z,95.45
2018-02-10T07:30:10.970Z,95.45
2018-02-10T07:31:10.805Z,95.64
2018-02-10T07:32:10.596Z,95.73
2018-02-10T07:33:10.460Z,95.92
2018-02-10T07:34:10.325Z,95.36
2018-02-10T07:35:10.190Z,95.64
2018-02-10T07:36:10.060Z,95.45
2018-02-10T07:37:09.922Z,95.92
2018-02-10T07:38:09.789Z,95.64
2018-02-10T07:39:09.724Z,95.83
2018-02-10T07:40:09.814Z,95.45
2018-02-10T07:41:09.382Z,95.83
2018-02-10T07:42:09.247Z,95.64
2018-02-10T07:43:09.286Z,95.45
2018-02-10T07:44:08.983Z,96.01
2018-02-10T07:45:08.843Z,95.83
2018-02-10T07:46:08.707Z,95.64
2018-02-10T07:47:08.573Z,95.73
2018-02-10T07:48:08.439Z,95.73
2018-02-10T07:49:08.303Z,96.77
2018-02-10T07:50:08.168Z,96.30
2018-02-10T07:51:08.035Z,96.77
2018-02-10T07:52:07.900Z,96.30
2018-02-10T07:53:07.762Z,96.39
2018-02-10T07:54:07.629Z,95.64
2018-02-10T07:55:07.494Z,95.54
2018-02-10T07:56:07.553Z,95.26
2018-02-10T07:57:08.616Z,95.36
2018-02-10T07:58:08.009Z,95.36
2018-02-10T07:59:07.057Z,95.17
2018-02-10T08:00:14.188Z,95.73
2018-02-10T08:01:59.509Z,95.31
2018-02-10T08:02:59.321Z,95.03
2018-02-10T08:04:51.967Z,95.31
2018-02-10T08:05:51.818Z,94.84
2018-02-10T08:07:44.711Z,94.65
2018-02-10T08:08:44.533Z,94.46
2018-02-10T08:10:37.182Z,94.18
2018-02-10T08:11:37.040Z,94.08
2018-02-10T08:13:29.734Z,94.65
2018-02-10T08:14:29.556Z,94.51
2018-02-10T08:16:22.200Z,94.93
2018-02-10T08:17:22.056Z,95.21
2018-02-10T08:19:14.749Z,94.74
2018-02-10T08:20:14.565Z,94.55
2018-02-10T08:22:19.937Z,94.46
2018-02-10T08:23:19.795Z,94.74
2018-02-10T08:25:12.479Z,93.99
2018-02-10T08:26:12.315Z,93.80
2018-02-10T08:28:20.957Z,94.08
2018-02-10T08:29:20.769Z,94.55
2018-02-10T08:31:14.267Z,94.08
2018-02-10T08:32:14.124Z,93.99
2018-02-10T08:37:37.656Z,93.89
2018-02-10T08:38:36.997Z,94.46
2018-02-10T08:40:44.351Z,94.74
2018-02-10T08:41:43.927Z,94.74
2018-02-10T08:44:20.677Z,94.65
2018-02-10T08:45:20.596Z,94.18
2018-02-10T08:47:13.185Z,94.08
2018-02-10T08:48:12.998Z,94.55
2018-02-10T08:50:05.673Z,94.55
2018-02-10T08:51:05.513Z,93.70
2018-02-10T08:53:26.353Z,93.89
2018-02-10T08:54:33.155Z,94.08
2018-02-10T08:56:18.694Z,93.89
2018-02-10T08:57:18.523Z,94.55
2018-02-10T08:59:11.206Z,93.61
2018-02-10T09:00:11.024Z,93.23
2018-02-10T09:02:18.745Z,93.23
2018-02-10T09:03:18.603Z,93.75
2018-02-10T09:05:12.983Z,93.28
2018-02-10T09:06:12.804Z,92.80
2018-02-10T09:08:05.653Z,90.73
2018-02-10T09:09:05.478Z,90.07
2018-02-10T09:10:58.124Z,89.12
2018-02-10T09:11:57.985Z,90.16
2018-02-10T09:13:50.695Z,89.40
2018-02-10T09:14:50.484Z,89.03
2018-02-10T09:16:43.226Z,88.32
2018-02-10T09:17:43.086Z,89.73
2018-02-10T09:19:36.612Z,91.06
2018-02-10T09:20:36.462Z,91.72
2018-02-10T09:22:29.105Z,91.25
2018-02-10T09:23:28.961Z,91.25
2018-02-10T09:25:21.638Z,91.25
2018-02-10T09:26:21.465Z,91.25
2018-02-10T09:28:14.344Z,91.49
2018-02-10T09:29:14.148Z,92.05
2018-02-10T09:31:06.790Z,91.96
2018-02-10T09:32:06.656Z,92.52
2018-02-10T09:33:59.339Z,92.90
2018-02-10T09:34:59.157Z,93.75
2018-02-10T09:36:51.800Z,94.13
2018-02-10T09:37:51.661Z,93.75
2018-02-10T09:39:44.351Z,93.66
2018-02-10T09:40:44.165Z,93.18
2018-02-10T09:42:36.908Z,94.79
2018-02-10T09:43:36.760Z,94.79
2018-02-10T09:45:29.449Z,95.17
2018-02-10T09:46:29.271Z,94.32
2018-02-10T09:48:21.912Z,94.03
2018-02-10T09:50:34.554Z,93.84
2018-02-10T09:51:34.374Z,94.03
2018-02-10T09:53:27.026Z,94.13
2018-02-10T09:54:26.881Z,94.22
2018-02-10T09:56:34.646Z,95.07
2018-02-10T09:57:34.459Z,95.92
2018-02-10T09:59:27.107Z,95.50
2018-02-10T10:00:26.966Z,96.25
2018-02-10T10:02:34.752Z,96.49
2018-02-10T10:03:34.573Z,95.73
2018-02-10T10:05:28.063Z,94.70
2018-02-10T10:06:27.925Z,94.41
2018-02-10T10:08:22.309Z,94.60
2018-02-10T10:09:22.224Z,94.98
2018-02-10T10:11:14.773Z,95.17
2018-02-10T10:12:14.653Z,94.79
2018-02-10T10:14:08.082Z,94.89
2018-02-10T10:15:07.902Z,94.70
2018-02-10T10:17:00.553Z,94.60
2018-02-10T10:18:00.411Z,94.55
2018-02-10T10:19:53.088Z,95.07
2018-02-10T10:20:52.982Z,96.01
2018-02-10T10:22:46.447Z,95.92
2018-02-10T10:23:46.264Z,95.54
2018-02-10T10:25:38.912Z,95.26
2018-02-10T10:26:38.792Z,94.70
2018-02-10T10:28:46.537Z,94.60
2018-02-10T10:29:46.359Z,94.51
2018-02-10T10:31:39.018Z,94.51
2018-02-10T10:32:38.889Z,94.22
2018-02-10T10:34:31.575Z,94.79
2018-02-10T10:35:31.380Z,94.51
2018-02-10T10:37:24.181Z,94.89
2018-02-10T10:38:23.885Z,94.03
2018-02-10T10:40:16.603Z,94.60
2018-02-10T10:41:16.433Z,94.70
2018-02-10T10:43:09.075Z,94.79
2018-02-10T10:44:08.940Z,94.79
2018-02-10T10:46:01.613Z,94.60
2018-02-10T10:47:01.437Z,94.89
2018-02-10T10:48:54.088Z,94.51
2018-02-10T10:49:53.945Z,94.03
2018-02-10T10:51:46.626Z,94.03
2018-02-10T10:52:46.455Z,93.37
2018-02-10T10:54:39.101Z,93.28
2018-02-10T10:55:38.962Z,93.56
2018-02-10T10:57:31.641Z,93.42
2018-02-10T10:58:31.470Z,93.61
2018-02-10T11:00:24.119Z,92.14
2018-02-10T11:01:23.980Z,92.33
2018-02-10T11:03:16.660Z,92.80
2018-02-10T11:04:16.495Z,93.56
2018-02-10T11:06:09.184Z,93.47
2018-02-10T11:07:09.001Z,93.47
2018-02-10T11:09:01.649Z,93.80
2018-02-10T11:10:01.511Z,93.18
2018-02-10T11:11:54.195Z,93.37
2018-02-10T11:12:54.016Z,93.66
2018-02-10T11:14:46.659Z,93.84
2018-02-10T11:15:46.517Z,94.13
2018-02-10T11:17:39.206Z,94.03
2018-02-10T11:18:39.022Z,94.70
2018-02-10T11:20:31.870Z,94.13
2018-02-10T11:21:31.730Z,93.32
2018-02-10T11:23:24.426Z,93.04
2018-02-10T11:24:24.240Z,91.91
2018-02-10T11:26:16.893Z,90.82
2018-02-10T11:27:16.741Z,91.11
2018-02-10T11:29:09.435Z,90.07
2018-02-10T11:30:09.247Z,89.31
2018-02-10T11:32:02.745Z,89.03
2018-02-10T11:33:02.602Z,90.16
2018-02-10T11:34:56.157Z,89.88
2018-02-10T11:35:55.973Z,90.45
2018-02-10T11:37:48.616Z,90.40
2018-02-10T11:38:48.477Z,88.13
2018-02-10T11:40:41.167Z,87.37
2018-02-10T11:41:40.988Z,86.52
2018-02-10T11:43:33.735Z,85.11
2018-02-10T11:44:33.537Z,84.64
2018-02-10T11:46:26.229Z,85.01
2018-02-10T11:47:26.048Z,84.92
2018-02-10T11:49:18.696Z,86.71
2018-02-10T11:50:18.561Z,86.43
2018-02-10T11:52:11.253Z,86.80
2018-02-10T11:53:11.066Z,86.33
2018-02-10T11:55:03.715Z,89.07
2018-02-10T11:56:03.579Z,89.07
2018-02-10T11:57:56.268Z,89.26
2018-02-10T11:58:56.082Z,90.21
2018-02-10T12:00:48.738Z,90.02
2018-02-10T12:01:48.600Z,89.78
2018-02-10T12:03:41.293Z,90.73
2018-02-10T12:04:41.116Z,90.87
2018-02-10T12:06:33.757Z,90.96
2018-02-10T12:07:33.615Z,91.44
2018-02-10T12:09:26.314Z,90.68
2018-02-10T12:10:26.130Z,90.96
2018-02-10T12:12:18.774Z,90.92
2018-02-10T12:13:18.634Z,91.58
2018-02-10T12:15:11.327Z,91.20
2018-02-10T12:16:11.139Z,91.01
2018-02-10T12:18:03.788Z,91.49
2018-02-10T12:19:03.646Z,92.61
2018-02-10T12:20:57.182Z,92.71
2018-02-10T12:21:57.002Z,92.19
2018-02-10T12:23:49.658Z,92.38
2018-02-10T12:24:49.517Z,91.06
2018-02-10T12:26:42.216Z,91.25
2018-02-10T12:27:42.035Z,91.91
2018-02-10T12:29:34.683Z,90.77
2018-02-10T12:30:34.538Z,91.53
2018-02-10T12:32:27.259Z,91.06
2018-02-10T12:33:27.067Z,90.96
2018-02-10T12:35:19.959Z,90.77
2018-02-10T12:36:19.816Z,90.77
2018-02-10T12:38:12.498Z,89.73
2018-02-10T12:39:12.330Z,90.25
2018-02-10T12:41:06.691Z,90.11
2018-02-10T12:42:06.547Z,89.83
2018-02-10T12:43:59.241Z,89.36
2018-02-10T12:44:59.057Z,90.11
2018-02-10T12:46:51.739Z,90.11
2018-02-10T12:47:51.585Z,90.49
2018-02-10T12:49:44.268Z,89.73
2018-02-10T12:50:44.095Z,90.59
2018-02-10T12:52:37.595Z,90.11
2018-02-10T12:53:37.458Z,90.02
2018-02-10T12:55:31.031Z,89.83
2018-02-10T12:56:30.849Z,90.02
2018-02-10T12:58:23.523Z,89.07
2018-02-10T12:59:23.386Z,88.13
2018-02-10T13:01:16.077Z,89.26
2018-02-10T13:02:15.900Z,89.36
2018-02-10T13:04:08.538Z,88.74
2018-02-10T13:05:08.401Z,88.46
2018-02-10T13:07:01.095Z,88.46
2018-02-10T13:08:00.915Z,88.27
2018-02-10T13:09:53.610Z,87.51
2018-02-10T13:10:53.430Z,87.32
2018-02-10T13:12:46.137Z,87.42
2018-02-10T13:13:45.978Z,87.42
2018-02-10T13:15:38.672Z,88.27
2018-02-10T13:16:38.496Z,88.27
2018-02-10T13:18:31.144Z,87.42
2018-02-10T13:19:31.002Z,87.13
2018-02-10T13:21:23.714Z,87.32
2018-02-10T13:22:23.529Z,86.57
2018-02-10T13:24:16.206Z,83.30
2018-02-10T13:25:16.063Z,81.98
2018-02-10T13:27:08.765Z,81.70
2018-02-10T13:28:08.588Z,83.49
2018-02-10T13:30:01.291Z,83.30
2018-02-10T13:31:01.146Z,83.49
2018-02-10T13:32:53.838Z,83.68
2018-02-10T13:33:53.654Z,83.21
2018-02-10T13:35:46.308Z,81.32
2018-02-10T13:36:46.166Z,81.13
2018-02-10T13:38:38.858Z,81.32
2018-02-10T13:39:38.678Z,82.41
2018-02-10T13:41:31.357Z,82.73
2018-02-10T13:42:31.190Z,81.79
2018-02-10T13:44:23.900Z,80.75
2018-02-10T13:45:23.717Z,80.75
2018-02-10T13:47:16.364Z,81.03
2018-02-10T13:48:16.224Z,80.33
2018-02-10T13:50:08.946Z,80.33
2018-02-10T13:51:08.749Z,81.65
2018-02-10T13:53:01.397Z,83.26
2018-02-10T13:54:01.257Z,81.98
2018-02-10T13:55:53.948Z,79.99
2018-02-10T13:56:53.770Z,79.43
2018-02-10T13:58:46.428Z,80.84
2018-02-10T13:59:46.289Z,81.74
2018-02-10T14:01:39.830Z,83.36
2018-02-10T14:02:39.646Z,83.73
2018-02-10T14:04:32.310Z,84.68
2018-02-10T14:05:32.187Z,85.86
2018-02-10T14:07:24.956Z,88.42
2018-02-10T14:08:24.793Z,89.54
2018-02-10T14:10:17.419Z,91.34
2018-02-10T14:11:17.280Z,91.15
2018-02-10T14:13:10.135Z,90.87
2018-02-10T14:14:09.790Z,90.87
2018-02-10T14:16:17.877Z,90.21
2018-02-10T14:17:17.837Z,89.83
2018-02-10T14:19:10.355Z,90.21
2018-02-10T14:20:10.178Z,89.73
2018-02-10T14:22:02.871Z,90.40
2018-02-10T14:23:02.683Z,90.21
2018-02-10T14:24:55.460Z,89.83
2018-02-10T14:25:55.321Z,90.59
2018-02-10T14:27:48.055Z,90.21
2018-02-10T14:28:55.081Z,90.02
2018-02-10T14:30:40.626Z,89.64
2018-02-10T14:31:40.333Z,89.36
2018-02-10T14:33:33.021Z,88.51
2018-02-10T14:34:32.838Z,87.94
2018-02-10T14:36:25.488Z,88.79
2018-02-10T14:37:25.351Z,89.54
2018-02-10T14:39:18.129Z,89.36
2018-02-10T14:40:17.950Z,89.83
2018-02-10T14:42:11.466Z,90.11
2018-02-10T14:43:11.325Z,90.59
2018-02-10T14:45:04.021Z,90.02
2018-02-10T14:46:03.836Z,90.40
2018-02-10T14:47:56.656Z,90.02
2018-02-10T14:48:56.355Z,90.68
2018-02-10T14:50:49.942Z,90.77
2018-02-10T14:51:49.718Z,89.26
2018-02-10T14:53:42.368Z,88.60
2018-02-10T14:54:42.228Z,88.89
2018-02-10T14:56:34.912Z,89.17
2018-02-10T14:57:34.731Z,89.45
2018-02-10T14:59:27.380Z,89.92
2018-02-10T15:00:27.238Z,90.02
2018-02-10T15:02:19.931Z,89.17
2018-02-10T15:03:19.746Z,89.26
2018-02-10T15:05:12.393Z,89.64
2018-02-10T15:06:12.251Z,90.30
2018-02-10T15:08:04.926Z,89.92
2018-02-10T15:09:04.757Z,90.21
2018-02-10T15:10:57.403Z,89.07
2018-02-10T15:11:57.261Z,89.26
2018-02-10T15:13:49.951Z,88.79